CheckWX is a tool to help pilots better visualize weather data.  It is not intended as a substitute for an official pre-flight weather briefing.

00:31:00 UTC

KMNN METAR
Marion Municipal Airport
Marion, Ohio, USA
Current

38 mins ago

KMNN 162353Z AUTO 02005KT 10SM CLR 22/17 A3007 RMK AO2 SLP179 T02220172 10289 20222 53006
Observed
Sep-16 @ 23:53 UTC
Wind
  • 020° at 5 KTS
Visibility
10 SM
Flight Rules
VFR
Cloud Levels
  • Clear skies
Temperature
22°C / 72°F
Dewpoint
17°C / 63°F
Humidity
73%
Altimeter
30.07" Hg
Pressure
1018.32 hPa
Previous

2 hours ago

KMNN 162253Z AUTO 03009KT 10SM CLR 26/17 A3006 RMK AO2 SLP175 T02560172
Observed
Sep-16 @ 22:53 UTC
Wind
  • 030° at 9 KTS
Visibility
10 SM
Flight Rules
VFR
Cloud Levels
  • Clear skies
Temperature
26°C / 79°F
Dewpoint
17°C / 63°F
Humidity
58%
Altimeter
30.06" Hg
Pressure
1017.92 hPa
Previous

3 hours ago

KMNN 162153Z AUTO 02008KT 10SM CLR 27/17 A3005 RMK AO2 SLP171 T02670172
Observed
Sep-16 @ 21:53 UTC
Wind
  • 020° at 8 KTS
Visibility
10 SM
Flight Rules
VFR
Cloud Levels
  • Clear skies
Temperature
27°C / 81°F
Dewpoint
17°C / 63°F
Heat Index
28°C / 82°F
Humidity
54%
Altimeter
30.05" Hg
Pressure
1017.62 hPa